Time;durP1;ratioP1;P1;durP2;ratioP2;P2;SDS_P1;SDS_P2;PMS_P1;PMS_P2;Temp;Humidity;BMP_temperature;BMP_pressure;BME280_temperature;BME280_humidity;BME280_pressure;Samples;Min_cycle;Max_cycle;Signal;HPM_P1;HPM_P2
2023/04/06 00:00:11;;;;;;;11.10;4.30;;;;;;;13.46;67.16;99304.12;105720;1260;65545;-75
2023/04/06 00:02:42;;;;;;;12.60;4.10;;;;;;;13.46;67.22;99305.34;105588;1259;60556;-77
2023/04/06 00:05:11;;;;;;;8.00;4.10;;;;;;;13.48;67.19;99306.43;105760;1258;60450;-76
2023/04/06 00:07:39;;;;;;;10.70;4.40;;;;;;;13.48;67.31;99306.92;105775;1258;66639;-76
2023/04/06 00:10:09;;;;;;;8.50;4.20;;;;;;;13.49;67.26;99306.83;105626;1259;60555;-76
2023/04/06 00:12:44;;;;;;;8.00;4.20;;;;;;;13.47;67.34;99303.32;105625;1259;65416;-77
2023/04/06 00:15:12;;;;;;;7.40;4.10;;;;;;;13.47;67.40;99301.04;105560;1257;60445;-77
2023/04/06 00:17:42;;;;;;;6.20;3.80;;;;;;;13.48;67.42;99298.48;105661;1255;60480;-77
2023/04/06 00:20:11;;;;;;;9.50;4.40;;;;;;;13.50;67.34;99297.84;105747;1257;66743;-76
2023/04/06 00:22:41;;;;;;;6.80;3.70;;;;;;;13.53;67.42;99294.77;105687;1255;60495;-77
2023/04/06 00:25:11;;;;;;;6.40;3.80;;;;;;;13.53;67.32;99287.61;105684;1254;65212;-76
2023/04/06 00:27:40;;;;;;;7.90;4.20;;;;;;;13.55;67.38;99285.69;105571;1255;60438;-79
2023/04/06 00:30:10;;;;;;;8.50;4.20;;;;;;;13.55;67.33;99288.70;105686;1259;60374;-78
2023/04/06 00:32:39;;;;;;;9.90;4.10;;;;;;;13.54;67.32;99287.34;105691;1258;65553;-76
2023/04/06 00:35:08;;;;;;;5.30;3.70;;;;;;;13.55;67.27;99285.98;105695;1258;60541;-74
2023/04/06 00:37:37;;;;;;;7.60;3.70;;;;;;;13.55;67.20;99279.80;105678;1257;66466;-76
2023/04/06 00:40:07;;;;;;;7.00;3.60;;;;;;;13.54;67.16;99280.52;105861;1257;60434;-76
2023/04/06 00:42:35;;;;;;;6.60;3.70;;;;;;;13.54;67.18;99282.80;105711;1254;60870;-77
2023/04/06 00:45:05;;;;;;;5.80;3.70;;;;;;;13.53;66.97;99278.42;105683;1258;66640;-77
2023/04/06 00:47:34;;;;;;;11.20;4.30;;;;;;;13.53;66.88;99276.38;105753;1256;60555;-75
2023/04/06 00:50:06;;;;;;;7.10;3.70;;;;;;;13.52;66.77;99275.02;105496;1261;65622;-74
2023/04/06 00:52:35;;;;;;;8.60;3.70;;;;;;;13.50;66.74;99271.55;105717;1254;60493;-76
2023/04/06 00:55:05;;;;;;;7.90;3.90;;;;;;;13.51;66.75;99271.81;105667;1258;60434;-77
2023/04/06 00:57:36;;;;;;;8.30;3.80;;;;;;;13.50;66.57;99268.89;105999;1254;66851;-76
2023/04/06 01:00:06;;;;;;;7.00;3.40;;;;;;;13.50;66.61;99265.38;105812;1259;60555;-77
2023/04/06 01:02:36;;;;;;;5.50;3.50;;;;;;;13.51;66.50;99266.65;105930;1254;64305;-76
2023/04/06 01:05:06;;;;;;;7.20;3.10;;;;;;;13.52;66.26;99265.30;105703;1255;60454;-77
2023/04/06 01:07:44;;;;;;;10.20;3.50;;;;;;;13.53;66.27;99262.05;105775;1254;60544;-77
2023/04/06 01:10:25;;;;;;;5.40;3.40;;;;;;;13.54;66.14;99259.58;105786;1257;65905;-76
2023/04/06 01:13:01;;;;;;;6.40;3.60;;;;;;;13.56;66.10;99259.94;105703;1260;60482;-75
2023/04/06 01:15:46;;;;;;;8.60;4.00;;;;;;;13.57;66.06;99258.17;105737;1257;65350;-78
2023/04/06 01:18:18;;;;;;;6.30;3.70;;;;;;;13.58;66.06;99258.94;105638;1254;60480;-74
2023/04/06 01:20:54;;;;;;;6.80;3.80;;;;;;;13.59;65.88;99256.88;105753;1255;60499;-74
2023/04/06 01:23:25;;;;;;;9.10;4.20;;;;;;;13.61;65.90;99256.02;105765;1261;66509;-76
2023/04/06 01:25:54;;;;;;;8.40;4.60;;;;;;;13.62;65.80;99254.61;105741;1254;60911;-74
2023/04/06 01:28:24;;;;;;;7.00;4.40;;;;;;;13.62;65.72;99258.16;105592;1257;65534;-75
2023/04/06 01:30:57;;;;;;;;;;;;;;;13.61;65.69;99259.48;105598;1254;60440;-74
2023/04/06 01:33:42;;;;;;;7.80;4.50;;;;;;;13.62;65.71;99260.48;106009;1255;60572;-74
2023/04/06 01:36:15;;;;;;;11.20;5.30;;;;;;;13.61;65.79;99260.38;106883;1254;65683;-75
2023/04/06 01:38:45;;;;;;;8.40;5.30;;;;;;;13.61;65.82;99259.57;105537;1261;60489;-74
2023/04/06 01:41:14;;;;;;;10.60;5.20;;;;;;;13.60;65.77;99259.63;105694;1254;65440;-75
2023/04/06 01:43:49;;;;;;;5.80;4.90;;;;;;;13.59;65.89;99254.35;105689;1254;60560;-76
2023/04/06 01:46:17;;;;;;;7.40;4.20;;;;;;;13.60;66.02;99256.75;105645;1253;60425;-76
2023/04/06 01:48:47;;;;;;;12.50;4.70;;;;;;;13.61;66.02;99260.45;105646;1257;66971;-76
2023/04/06 01:51:20;;;;;;;7.60;4.90;;;;;;;13.58;66.17;99258.94;105641;1254;60451;-75
2023/04/06 01:53:55;;;;;;;9.80;4.80;;;;;;;13.56;66.22;99259.71;105434;1254;65156;-74
2023/04/06 01:56:27;;;;;;;9.30;4.50;;;;;;;13.54;66.22;99263.50;105907;1254;60450;-74
2023/04/06 01:59:02;;;;;;;10.00;4.80;;;;;;;13.50;66.28;99261.94;105619;1254;60550;-76
2023/04/06 02:01:36;;;;;;;8.40;4.60;;;;;;;13.47;66.38;99260.84;105735;1257;66445;-74
2023/04/06 02:04:05;;;;;;;9.60;4.60;;;;;;;13.45;66.42;99267.65;105556;1254;60470;-76
2023/04/06 02:06:34;;;;;;;8.30;4.40;;;;;;;13.41;66.63;99265.82;105667;1259;64244;-77
2023/04/06 02:09:03;;;;;;;10.60;4.50;;;;;;;13.35;66.92;99268.05;105697;1254;60441;-76
2023/04/06 02:11:31;;;;;;;9.20;4.60;;;;;;;13.30;67.02;99269.08;105685;1254;60530;-77
2023/04/06 02:14:05;;;;;;;7.70;4.80;;;;;;;13.27;67.12;99264.98;105706;1257;66680;-76
2023/04/06 02:16:47;;;;;;;10.70;4.90;;;;;;;13.25;67.13;99267.01;105633;1254;60442;-76
2023/04/06 02:19:16;;;;;;;8.40;4.50;;;;;;;13.24;67.36;99264.31;105793;1255;65538;-74
2023/04/06 02:21:44;;;;;;;8.10;4.30;;;;;;;13.23;67.50;99266.38;105663;1254;60497;-75
2023/04/06 02:24:12;;;;;;;9.80;4.40;;;;;;;13.22;67.56;99270.17;105742;1253;60419;-75
2023/04/06 02:26:41;;;;;;;8.30;4.50;;;;;;;13.19;67.67;99266.34;105727;1254;66622;-75
2023/04/06 02:29:10;;;;;;;5.90;4.20;;;;;;;13.18;67.76;99268.78;105805;1258;60441;-73
2023/04/06 02:31:40;;;;;;;8.40;4.90;;;;;;;13.16;67.89;99269.85;105609;1260;66299;-75
2023/04/06 02:34:11;;;;;;;9.60;4.70;;;;;;;13.15;67.81;99272.64;105805;1254;60525;-73
2023/04/06 02:36:45;;;;;;;8.70;4.30;;;;;;;13.12;67.92;99270.61;105796;1254;60408;-75
2023/04/06 02:39:15;;;;;;;8.10;4.50;;;;;;;13.11;68.11;99275.30;105777;1258;66615;-74
2023/04/06 02:41:44;;;;;;;10.90;4.90;;;;;;;13.11;68.27;99277.85;105762;1255;60560;-75
2023/04/06 02:44:13;;;;;;;9.30;4.50;;;;;;;13.10;68.31;99276.03;105793;1257;63986;-75
2023/04/06 02:46:43;;;;;;;7.80;4.40;;;;;;;13.09;68.52;99277.16;105688;1257;60549;-74
2023/04/06 02:49:11;;;;;;;10.80;5.00;;;;;;;13.09;68.48;99282.66;105720;1259;60432;-76
2023/04/06 02:51:40;;;;;;;8.70;4.80;;;;;;;13.08;68.65;99284.88;105640;1257;66727;-74
2023/04/06 02:54:33;;;;;;;11.40;4.70;;;;;;;13.07;68.69;99289.20;105717;1254;60575;-74
2023/04/06 02:57:02;;;;;;;12.10;4.80;;;;;;;13.07;68.68;99287.44;105649;1254;65087;-75
2023/04/06 02:59:37;;;;;;;9.80;4.90;;;;;;;13.06;68.79;99290.71;105701;1261;60550;-75
2023/04/06 03:02:26;;;;;;;11.80;5.50;;;;;;;13.06;68.77;99292.67;105739;1254;60543;-74
2023/04/06 03:04:56;;;;;;;6.70;4.70;;;;;;;13.07;68.77;99289.59;105747;1257;66532;-76
2023/04/06 03:07:30;;;;;;;;;;;;;;;13.08;68.67;99288.23;105681;1254;60402;-76
2023/04/06 03:09:58;;;;;;;12.20;4.90;;;;;;;13.08;68.69;99288.73;105793;1260;65576;-76
2023/04/06 03:12:27;;;;;;;10.10;5.30;;;;;;;13.08;68.79;99292.14;105818;1254;60406;-75
2023/04/06 03:15:16;;;;;;;11.80;5.00;;;;;;;13.09;68.75;99293.47;105701;1254;60529;-76
2023/04/06 03:17:49;;;;;;;7.50;4.60;;;;;;;13.08;68.66;99299.00;105514;1259;66489;-73
2023/04/06 03:20:39;;;;;;;7.80;5.00;;;;;;;13.05;68.70;99301.45;105695;1254;60542;-75
2023/04/06 03:23:15;;;;;;;9.10;5.50;;;;;;;13.03;68.77;99303.77;105750;1253;65476;-75
2023/04/06 03:25:44;;;;;;;9.30;5.30;;;;;;;13.03;68.82;99309.09;105654;1254;60789;-76
2023/04/06 03:28:18;;;;;;;8.90;5.00;;;;;;;13.02;68.70;99309.16;105632;1254;60832;-75
2023/04/06 03:30:54;;;;;;;9.30;5.20;;;;;;;13.02;68.69;99307.83;105550;1257;66768;-76
2023/04/06 03:33:41;;;;;;;10.60;5.90;;;;;;;13.01;68.68;99309.69;105611;1254;60549;-74
2023/04/06 03:36:12;;;;;;;9.70;6.00;;;;;;;13.01;68.74;99309.19;105710;1254;65310;-75
2023/04/06 03:38:46;;;;;;;11.90;5.40;;;;;;;13.02;68.82;99311.88;105629;1253;60526;-76
2023/04/06 03:41:15;;;;;;;8.40;5.30;;;;;;;13.03;68.73;99315.70;106100;1258;62437;-75
2023/04/06 03:43:49;;;;;;;11.80;6.00;;;;;;;13.03;68.66;99308.74;105732;1257;66550;-75
2023/04/06 03:46:18;;;;;;;8.80;5.60;;;;;;;13.04;68.74;99307.09;105538;1254;60473;-74
2023/04/06 03:48:49;;;;;;;10.00;5.50;;;;;;;13.04;68.69;99310.58;105618;1260;65240;-75
2023/04/06 03:51:18;;;;;;;10.20;5.70;;;;;;;13.04;68.69;99317.59;105707;1253;60451;-76
2023/04/06 03:53:48;;;;;;;10.60;6.10;;;;;;;13.05;68.75;99318.45;105753;1254;60540;-75
2023/04/06 03:56:22;;;;;;;11.80;5.90;;;;;;;13.05;68.73;99317.20;105569;1254;66445;-75
2023/04/06 03:58:55;;;;;;;11.70;6.10;;;;;;;13.04;68.78;99324.39;105760;1254;61943;-76
2023/04/06 04:01:25;;;;;;;10.50;6.40;;;;;;;13.05;68.82;99326.08;105840;1254;65549;-76
2023/04/06 04:03:53;;;;;;;11.40;6.50;;;;;;;13.04;68.83;99328.96;105793;1254;60479;-77
2023/04/06 04:06:22;;;;;;;10.30;6.30;;;;;;;13.04;68.83;99326.70;105702;1254;60592;-77
2023/04/06 04:08:51;;;;;;;9.50;6.40;;;;;;;13.03;68.88;99324.17;105635;1254;66504;-75
2023/04/06 04:11:20;;;;;;;12.30;7.50;;;;;;;13.02;68.91;99328.44;105638;1257;60483;-74
2023/04/06 04:13:51;;;;;;;13.50;7.50;;;;;;;13.01;69.05;99336.48;105569;1259;65894;-76
2023/04/06 04:16:22;;;;;;;10.60;7.00;;;;;;;13.01;69.07;99337.38;105710;1254;60459;-75
2023/04/06 04:18:50;;;;;;;11.90;7.20;;;;;;;13.00;69.02;99344.91;105641;1253;60539;-76
2023/04/06 04:21:19;;;;;;;17.30;6.80;;;;;;;12.99;69.07;99343.08;105519;1254;66756;-76
2023/04/06 04:23:50;;;;;;;12.50;7.30;;;;;;;12.98;69.03;99342.45;105651;1254;60447;-78
2023/04/06 04:26:18;;;;;;;14.20;6.70;;;;;;;12.99;69.07;99344.34;105731;1254;65611;-74
2023/04/06 04:28:47;;;;;;;11.80;7.10;;;;;;;12.99;69.12;99348.19;105669;1258;60518;-76
2023/04/06 04:31:21;;;;;;;10.90;6.50;;;;;;;12.99;69.03;99352.96;105749;1253;60511;-75
2023/04/06 04:33:53;;;;;;;10.50;7.10;;;;;;;13.00;69.12;99356.04;105728;1257;66528;-75
2023/04/06 04:36:26;;;;;;;13.50;6.50;;;;;;;13.00;69.13;99358.33;105785;1255;60615;-76
2023/04/06 04:38:55;;;;;;;10.50;6.00;;;;;;;13.00;69.21;99355.38;105736;1253;65357;-76
2023/04/06 04:41:23;;;;;;;12.00;6.50;;;;;;;12.99;69.23;99356.77;105678;1255;60457;-75
2023/04/06 04:51:36;;;;;;;12.70;7.10;;;;;;;13.02;69.23;99355.29;102661;1289;608243;-76
2023/04/06 04:54:09;;;;;;;11.60;6.70;;;;;;;13.02;69.20;99353.04;104809;1271;59331;-75
2023/04/06 04:56:38;;;;;;;12.00;7.00;;;;;;;13.03;69.24;99353.65;104953;1266;59257;-75
2023/04/06 04:59:34;;;;;;;14.20;8.00;;;;;;;13.06;69.34;99359.17;104716;1267;64013;-74
2023/04/06 05:02:08;;;;;;;13.40;9.00;;;;;;;13.07;69.36;99365.02;104719;1267;59854;-73
2023/04/06 05:04:42;;;;;;;14.10;7.90;;;;;;;13.08;69.32;99363.19;104818;1265;185442;-75
2023/04/06 05:07:10;;;;;;;17.50;9.20;;;;;;;13.09;69.45;99358.52;105173;1266;59218;-75
2023/04/06 05:09:42;;;;;;;14.40;8.90;;;;;;;13.09;69.35;99358.48;104768;1264;60062;-74
2023/04/06 05:12:10;;;;;;;23.60;10.40;;;;;;;13.08;69.41;99365.34;105134;1263;64824;-73
2023/04/06 05:14:47;;;;;;;16.10;10.30;;;;;;;13.07;69.28;99364.39;104976;1267;59827;-74
2023/04/06 05:17:17;;;;;;;19.40;10.80;;;;;;;13.07;69.34;99359.58;107447;1263;65608;-74
2023/04/06 05:19:47;;;;;;;18.00;12.10;;;;;;;13.09;69.40;99357.38;105414;1260;59575;-74
2023/04/06 05:22:17;;;;;;;17.20;12.20;;;;;;;13.10;69.42;99357.29;105608;1260;59645;-73
2023/04/06 05:24:46;;;;;;;25.10;12.90;;;;;;;13.12;69.41;99363.43;105529;1257;65764;-74
2023/04/06 05:27:13;;;;;;;23.30;14.20;;;;;;;13.14;69.48;99362.95;105744;1257;60098;-72
2023/04/06 05:29:41;;;;;;;25.30;15.40;;;;;;;13.15;69.50;99366.45;105334;1257;64599;-75
2023/04/06 05:32:08;;;;;;;26.30;15.00;;;;;;;13.17;69.49;99364.45;105882;1257;59604;-73
2023/04/06 05:34:36;;;;;;;25.10;17.10;;;;;;;13.18;69.48;99365.80;105735;1257;59652;-74
2023/04/06 05:37:04;;;;;;;23.00;15.90;;;;;;;13.18;69.43;99366.13;105661;1257;65730;-74
2023/04/06 05:39:32;;;;;;;23.80;16.30;;;;;;;13.18;69.43;99369.65;106368;1257;59896;-72
2023/04/06 05:42:19;;;;;;;29.80;17.90;;;;;;;13.18;69.39;99368.65;105713;1253;65540;-74
2023/04/06 05:44:53;;;;;;;31.00;17.70;;;;;;;13.16;69.54;99370.40;105734;1254;59459;-72
2023/04/06 05:47:20;;;;;;;32.00;18.30;;;;;;;13.15;69.42;99372.13;105727;1257;60901;-73
2023/04/06 05:49:53;;;;;;;24.40;17.70;;;;;;;13.13;69.46;99374.24;105697;1257;65365;-72
2023/04/06 05:52:33;;;;;;;26.30;17.90;;;;;;;13.12;69.53;99374.09;105706;1255;59838;-73
2023/04/06 05:55:00;;;;;;;27.80;18.20;;;;;;;13.10;69.59;99373.02;105681;1254;65560;-70
2023/04/06 05:57:29;;;;;;;27.90;19.10;;;;;;;13.08;69.58;99375.35;105746;1254;59634;-75
2023/04/06 05:59:57;;;;;;;27.50;18.10;;;;;;;13.08;69.53;99371.48;105553;1254;59745;-73
2023/04/06 06:02:27;;;;;;;34.30;19.00;;;;;;;13.10;69.60;99374.45;105936;1255;65740;-73
2023/04/06 06:04:56;;;;;;;27.30;17.50;;;;;;;13.11;69.59;99373.75;105808;1257;59616;-79
2023/04/06 06:07:24;;;;;;;25.40;17.70;;;;;;;13.12;69.64;99372.47;105709;1258;64375;-76
2023/04/06 06:09:58;;;;;;;28.70;19.20;;;;;;;13.11;69.64;99372.54;105786;1255;59549;-71
2023/04/06 06:12:30;;;;;;;31.00;19.10;;;;;;;13.12;69.61;99375.83;105660;1254;59699;-72
2023/04/06 06:14:58;;;;;;;23.60;18.10;;;;;;;13.14;69.73;99380.55;105781;1255;65945;-72
2023/04/06 06:17:26;;;;;;;26.70;18.80;;;;;;;13.17;69.78;99384.81;105456;1260;59644;-71
2023/04/06 06:19:53;;;;;;;34.30;20.70;;;;;;;13.18;69.79;99390.04;105636;1253;65557;-71
2023/04/06 06:22:20;;;;;;;31.10;19.90;;;;;;;13.21;69.69;99390.34;105575;1258;59605;-71
2023/04/06 06:24:47;;;;;;;28.80;18.60;;;;;;;13.22;69.75;99392.83;105815;1253;59696;-72
2023/04/06 06:27:16;;;;;;;26.60;19.90;;;;;;;13.25;69.74;99396.11;105857;1256;65544;-71
2023/04/06 06:29:45;;;;;;;22.80;19.40;;;;;;;13.27;69.65;99401.67;105758;1258;59980;-72
2023/04/06 06:32:14;;;;;;;84.40;21.40;;;;;;;13.27;69.57;99404.83;105701;1253;65283;-71
2023/04/06 06:34:41;;;;;;;26.30;18.70;;;;;;;13.30;69.64;99404.39;105906;1253;59695;-74
2023/04/06 06:37:09;;;;;;;25.70;18.10;;;;;;;13.30;69.49;99406.98;105687;1253;59672;-70
2023/04/06 06:39:37;;;;;;;28.40;18.10;;;;;;;13.27;69.50;99411.19;105611;1260;65544;-70
2023/04/06 06:42:04;;;;;;;109.60;20.60;;;;;;;13.25;69.34;99412.48;105771;1253;60007;-70
2023/04/06 06:44:53;;;;;;;186.40;24.40;;;;;;;13.24;69.40;99419.38;105754;1254;65411;-71
2023/04/06 06:47:21;;;;;;;34.30;18.40;;;;;;;13.21;69.34;99417.49;105597;1253;59591;-70
2023/04/06 06:49:49;;;;;;;36.50;19.30;;;;;;;13.20;69.31;99421.48;105604;1253;59711;-70
2023/04/06 06:52:20;;;;;;;36.10;18.00;;;;;;;13.20;69.32;99421.70;105646;1259;65715;-71
2023/04/06 06:54:46;;;;;;;31.60;18.50;;;;;;;13.21;69.29;99425.18;105990;1257;59926;-70
2023/04/06 06:57:14;;;;;;;47.60;19.30;;;;;;;13.21;69.19;99422.98;105807;1253;65587;-68
2023/04/06 06:59:41;;;;;;;59.30;19.80;;;;;;;13.23;69.22;99421.76;105549;1253;59682;-69
2023/04/06 07:02:09;;;;;;;28.10;18.50;;;;;;;13.27;69.31;99427.13;105859;1253;59619;-69
2023/04/06 07:04:36;;;;;;;32.30;19.00;;;;;;;13.31;69.26;99427.20;105772;1254;65805;-71
2023/04/06 07:07:04;;;;;;;31.40;18.50;;;;;;;13.36;69.31;99433.09;105738;1257;59856;-73
2023/04/06 07:09:32;;;;;;;52.00;18.90;;;;;;;13.42;69.22;99435.13;105682;1254;73973;-70
2023/04/06 07:12:00;;;;;;;29.80;18.20;;;;;;;13.46;69.11;99439.21;106012;1257;59548;-72
2023/04/06 07:14:29;;;;;;;36.20;18.20;;;;;;;13.51;68.87;99444.95;105713;1254;59649;-73
2023/04/06 07:16:56;;;;;;;26.20;17.60;;;;;;;13.54;68.80;99445.70;105686;1259;65979;-73
2023/04/06 07:19:24;;;;;;;24.30;17.00;;;;;;;13.54;68.76;99450.36;105835;1256;61297;-72
2023/04/06 07:21:52;;;;;;;30.90;16.80;;;;;;;13.54;68.59;99452.89;105771;1253;66317;-71
2023/04/06 07:24:20;;;;;;;47.20;17.80;;;;;;;13.55;68.52;99452.27;105685;1253;59647;-72
2023/04/06 07:26:47;;;;;;;26.70;15.90;;;;;;;13.57;68.33;99460.02;105897;1253;59670;-70
2023/04/06 07:29:15;;;;;;;58.20;17.20;;;;;;;13.59;68.36;99458.86;105850;1254;65640;-69
2023/04/06 07:31:42;;;;;;;22.00;15.40;;;;;;;13.61;68.35;99459.06;105646;1253;61138;-70
2023/04/06 07:34:10;;;;;;;27.00;16.20;;;;;;;13.61;68.02;99463.30;105668;1254;65378;-70
2023/04/06 07:36:43;;;;;;;20.30;14.50;;;;;;;13.59;67.89;99467.58;105630;1254;59646;-71
2023/04/06 07:39:11;;;;;;;17.90;13.70;;;;;;;13.58;67.84;99466.78;105619;1253;59635;-72
2023/04/06 07:41:40;;;;;;;21.10;13.70;;;;;;;13.57;67.68;99468.54;105784;1257;66510;-72
2023/04/06 07:44:07;;;;;;;21.80;13.50;;;;;;;13.56;67.68;99471.03;105673;1257;59681;-72
2023/04/06 07:46:35;;;;;;;16.80;11.80;;;;;;;13.57;67.47;99472.15;105799;1253;64267;-75
2023/04/06 07:49:04;;;;;;;15.90;10.20;;;;;;;13.59;67.29;99475.20;105520;1253;59766;-76
2023/04/06 07:51:36;;;;;;;56.10;13.10;;;;;;;13.61;67.04;99476.20;105817;1253;59696;-74
2023/04/06 07:54:03;;;;;;;15.40;9.60;;;;;;;13.64;66.92;99480.23;105786;1260;65649;-71
2023/04/06 07:56:31;;;;;;;18.40;10.40;;;;;;;13.68;66.63;99482.48;105586;1256;59712;-72
2023/04/06 07:58:58;;;;;;;27.50;10.40;;;;;;;13.70;66.34;99484.76;106074;1254;65275;-76
2023/04/06 08:01:27;;;;;;;24.10;10.90;;;;;;;13.73;66.18;99491.33;105992;1257;59542;-74
2023/04/06 08:03:56;;;;;;;18.80;9.40;;;;;;;13.77;66.19;99488.23;105614;1253;59685;-81
2023/04/06 08:06:23;;;;;;;15.30;9.70;;;;;;;13.84;66.14;99487.41;105823;1258;66202;-77
2023/04/06 08:08:52;;;;;;;15.30;9.40;;;;;;;13.91;65.83;99486.14;105617;1253;59829;-75
2023/04/06 08:11:19;;;;;;;12.50;8.30;;;;;;;13.96;65.69;99489.46;105727;1253;65428;-77
2023/04/06 08:13:47;;;;;;;12.20;8.60;;;;;;;14.01;65.50;99493.29;105782;1259;59388;-77
2023/04/06 08:16:15;;;;;;;15.50;9.60;;;;;;;14.04;65.12;99494.94;109215;1253;57401;-71
2023/04/06 08:18:43;;;;;;;11.10;8.30;;;;;;;14.06;64.93;99496.70;109342;1254;65846;-71
2023/04/06 08:21:10;;;;;;;14.40;8.10;;;;;;;14.07;64.60;99498.23;109175;1254;59138;-74
2023/04/06 08:23:37;;;;;;;11.60;8.80;;;;;;;14.07;64.40;99501.34;109360;1252;64938;-68
2023/04/06 08:26:04;;;;;;;13.40;8.50;;;;;;;14.10;64.35;99501.19;109374;1254;57426;-71
2023/04/06 08:28:35;;;;;;;13.00;8.90;;;;;;;14.08;64.18;99507.81;109200;1260;57719;-71
2023/04/06 08:31:05;;;;;;;16.60;7.90;;;;;;;14.07;64.16;99509.17;109275;1254;65418;-69
2023/04/06 08:33:36;;;;;;;15.20;8.60;;;;;;;14.05;64.15;99509.67;109402;1254;59377;-71
2023/04/06 08:36:12;;;;;;;13.70;8.10;;;;;;;14.07;64.09;99513.23;109322;1254;65125;-72
2023/04/06 08:38:41;;;;;;;10.20;7.10;;;;;;;14.12;64.16;99515.89;109293;1254;57374;-74
2023/04/06 08:41:11;;;;;;;39.70;7.50;;;;;;;14.14;63.89;99515.59;109374;1254;57376;-71
2023/04/06 08:43:46;;;;;;;10.70;6.80;;;;;;;14.14;63.88;99520.36;109209;1254;65468;-71
2023/04/06 08:46:13;;;;;;;9.20;6.30;;;;;;;14.13;63.55;99522.79;109201;1254;58395;-73
2023/04/06 08:48:41;;;;;;;9.50;6.00;;;;;;;14.09;63.22;99522.69;109173;1254;64258;-75
2023/04/06 08:51:11;;;;;;;14.70;5.90;;;;;;;14.03;63.21;99524.75;109087;1254;57298;-72
2023/04/06 08:53:38;;;;;;;8.80;5.90;;;;;;;13.98;63.31;99527.09;109337;1254;57383;-72
2023/04/06 08:56:05;;;;;;;11.90;6.50;;;;;;;13.94;63.34;99527.45;109192;1254;64164;-71
2023/04/06 08:58:36;;;;;;;8.60;5.80;;;;;;;13.94;63.31;99527.29;109397;1254;59298;-78
2023/04/06 09:01:09;;;;;;;7.20;5.30;;;;;;;13.93;63.25;99532.04;109174;1254;64685;-74
2023/04/06 09:03:39;;;;;;;7.50;5.30;;;;;;;13.91;63.15;99537.23;109101;1258;58153;-74
2023/04/06 09:06:06;;;;;;;7.10;4.90;;;;;;;13.91;63.19;99537.12;109195;1254;58062;-73
2023/04/06 09:08:34;;;;;;;6.70;5.50;;;;;;;13.92;63.15;99544.22;109265;1254;64963;-73
2023/04/06 09:11:04;;;;;;;8.30;5.60;;;;;;;13.93;63.16;99542.48;109314;1254;59473;-73
2023/04/06 09:13:48;;;;;;;10.10;5.70;;;;;;;13.93;63.13;99545.65;109380;1254;64993;-73
2023/04/06 09:16:18;;;;;;;7.80;5.70;;;;;;;13.94;63.12;99546.48;109169;1254;58225;-72
2023/04/06 09:18:46;;;;;;;8.80;6.30;;;;;;;13.94;63.09;99546.12;109303;1254;58140;-73
2023/04/06 09:21:19;;;;;;;8.70;6.50;;;;;;;13.95;63.21;99549.04;109176;1254;66029;-73
2023/04/06 09:24:00;;;;;;;8.80;6.80;;;;;;;13.99;63.31;99551.19;109331;1254;59709;-72
2023/04/06 09:26:33;;;;;;;13.00;7.50;;;;;;;14.07;63.55;99553.40;109130;1255;65063;-71
2023/04/06 09:29:01;;;;;;;11.50;7.60;;;;;;;14.16;63.50;99555.42;109214;1254;58295;-73
2023/04/06 09:31:29;;;;;;;11.70;7.90;;;;;;;14.24;63.43;99556.66;109364;1254;58210;-71
2023/04/06 09:33:56;;;;;;;10.00;7.40;;;;;;;14.32;63.27;99557.07;109224;1258;66203;-70
2023/04/06 09:36:33;;;;;;;11.90;7.50;;;;;;;14.32;62.87;99562.70;109354;1255;59282;-71
2023/04/06 09:39:04;;;;;;;25.40;7.40;;;;;;;14.25;62.67;99565.76;109287;1255;65234;-72
2023/04/06 09:41:32;;;;;;;11.50;7.30;;;;;;;14.13;62.65;99566.02;109136;1255;58142;-71
2023/04/06 09:44:06;;;;;;;10.70;7.90;;;;;;;14.02;62.72;99567.52;109138;1256;58161;-71
2023/04/06 09:46:36;;;;;;;19.30;7.80;;;;;;;13.91;63.07;99569.56;109080;1255;66260;-72
2023/04/06 09:49:22;;;;;;;12.90;7.20;;;;;;;13.87;63.23;99574.66;109129;1256;59288;-72
2023/04/06 09:51:54;;;;;;;9.80;6.70;;;;;;;13.86;63.34;99574.73;109169;1256;65056;-72
2023/04/06 09:54:22;;;;;;;10.80;7.20;;;;;;;13.88;63.44;99577.89;109207;1255;58234;-73
2023/04/06 09:57:04;;;;;;;12.40;7.40;;;;;;;13.93;63.49;99578.59;109113;1255;58045;-71
2023/04/06 09:59:51;;;;;;;9.60;7.30;;;;;;;13.98;63.22;99579.12;109292;1255;66185;-69
2023/04/06 10:02:24;;;;;;;10.00;7.00;;;;;;;13.99;63.09;99579.34;109366;1255;58791;-71
2023/04/06 10:05:01;;;;;;;8.90;6.60;;;;;;;13.99;63.10;99581.30;109114;1255;64957;-72
2023/04/06 10:07:28;;;;;;;13.90;7.20;;;;;;;14.01;63.03;99582.73;109109;1255;58127;-73
2023/04/06 10:09:55;;;;;;;8.80;6.50;;;;;;;14.05;62.97;99579.98;109313;1254;58154;-72
2023/04/06 10:12:22;;;;;;;9.00;7.30;;;;;;;14.13;63.11;99583.54;109260;1255;66029;-72
2023/04/06 10:14:49;;;;;;;9.30;6.40;;;;;;;14.19;63.03;99586.93;109151;1255;59359;-72
2023/04/06 10:17:16;;;;;;;10.30;6.70;;;;;;;14.23;62.54;99585.98;109218;1256;64157;-72
2023/04/06 10:19:51;;;;;;;7.70;6.10;;;;;;;14.22;62.11;99587.14;109093;1254;58077;-72
2023/04/06 10:22:30;;;;;;;7.70;6.50;;;;;;;14.19;61.93;99590.83;109145;1255;58259;-72
2023/04/06 10:24:56;;;;;;;8.10;6.20;;;;;;;14.14;61.83;99589.25;109109;1256;65969;-72
2023/04/06 10:27:29;;;;;;;10.30;6.50;;;;;;;14.10;61.90;99591.15;109197;1256;59051;-72
2023/04/06 10:30:03;;;;;;;9.30;6.70;;;;;;;14.10;62.13;99593.57;108965;1256;64953;-72
2023/04/06 10:32:36;;;;;;;8.60;6.90;;;;;;;14.11;62.19;99594.70;109062;1256;58229;-72
2023/04/06 10:35:10;;;;;;;9.40;6.40;;;;;;;14.10;62.27;99596.06;109110;1256;58195;-69
2023/04/06 10:37:51;;;;;;;9.60;6.90;;;;;;;14.09;62.38;99597.46;109109;1256;66006;-67
2023/04/06 10:40:23;;;;;;;8.80;6.10;;;;;;;14.10;62.27;99604.45;109112;1256;59117;-68
2023/04/06 10:42:50;;;;;;;8.90;6.40;;;;;;;14.11;62.28;99605.27;109105;1256;64974;-69
2023/04/06 10:45:26;;;;;;;10.10;7.40;;;;;;;14.09;62.26;99604.70;109075;1256;58530;-68
2023/04/06 10:47:53;;;;;;;14.00;6.90;;;;;;;14.08;62.24;99607.16;109029;1256;58214;-69
2023/04/06 10:50:20;;;;;;;8.60;6.70;;;;;;;14.02;62.13;99606.30;109202;1256;64938;-69
2023/04/06 10:52:47;;;;;;;11.20;7.20;;;;;;;13.97;62.36;99612.02;109098;1256;59165;-68
2023/04/06 10:55:14;;;;;;;10.40;7.30;;;;;;;13.93;62.44;99611.91;109207;1256;65327;-68
2023/04/06 10:57:41;;;;;;;14.70;8.00;;;;;;;13.92;62.63;99611.32;108982;1256;58078;-68
2023/04/06 11:00:09;;;;;;;11.10;7.50;;;;;;;13.93;62.65;99613.67;109230;1256;58101;-68
2023/04/06 11:02:40;;;;;;;8.90;5.60;;;;;;;13.96;62.80;99615.23;109074;1256;65284;-68
2023/04/06 11:05:07;;;;;;;10.00;7.20;;;;;;;14.00;62.85;99616.61;109104;1256;59108;-70
2023/04/06 11:07:36;;;;;;;10.70;7.40;;;;;;;14.04;62.85;99614.40;109044;1256;63833;-68
2023/04/06 11:10:03;;;;;;;12.70;7.90;;;;;;;14.08;62.76;99614.23;109182;1258;58133;-70
2023/04/06 11:12:43;;;;;;;10.10;6.70;;;;;;;14.10;62.62;99621.38;109100;1261;58187;-68
2023/04/06 11:15:11;;;;;;;9.60;6.60;;;;;;;14.12;62.39;99621.39;109062;1256;65326;-69
2023/04/06 11:17:38;;;;;;;10.20;6.70;;;;;;;14.15;62.48;99622.98;109062;1256;58278;-67
2023/04/06 11:20:09;;;;;;;10.40;6.60;;;;;;;14.20;62.51;99624.45;109204;1256;63857;-67
2023/04/06 11:22:36;;;;;;;9.40;6.50;;;;;;;14.24;62.53;99624.13;108994;1256;58134;-68
2023/04/06 11:25:06;;;;;;;8.70;6.20;;;;;;;14.30;62.47;99625.64;109150;1257;58012;-68
2023/04/06 11:27:38;;;;;;;6.80;5.30;;;;;;;14.35;62.32;99622.61;109050;1257;66222;-68
2023/04/06 11:30:06;;;;;;;7.90;5.60;;;;;;;14.40;62.17;99623.85;109094;1257;58204;-68
2023/04/06 11:32:43;;;;;;;10.70;6.20;;;;;;;14.43;62.01;99623.23;109015;1257;64078;-68
2023/04/06 11:35:19;;;;;;;8.10;6.20;;;;;;;14.44;61.87;99620.95;109082;1258;58181;-69
2023/04/06 11:37:46;;;;;;;8.40;5.70;;;;;;;14.45;61.87;99625.48;109113;1257;58233;-69
2023/04/06 11:40:13;;;;;;;6.40;5.50;;;;;;;14.46;61.73;99627.50;109185;1257;65862;-68
2023/04/06 11:42:40;;;;;;;8.00;5.90;;;;;;;14.48;61.71;99627.98;109154;1257;58432;-68